PWSweather.com
Personal Weather Stations
Station Observations
IONTARIO88
Lincoln, ON L0R

Lincoln, ON L0R

Lat: 43.1763563, Lon: -79.4719525

Elevation: 297

Station Type: Davis Vantage Pro 2 Plus

http://www.beamsvillewx.ca

Latest ConditionsUpdated 11:00:01 PM EDT Friday, Sep 30, 2016
Currently Today's Max Today's Min Today's Average
Temperature 58.2°F14.6°C 59.6°F15.3°C 58.2°F14.6°C 59.2°F15.1°C
Dew Point 52.4°F11.3°C 52.5°F11.4°C 51.3°F10.7°C 52.1°F11.2°C
Winds Calm Calm 1.2 mph NE1.9 kmh NE - 0.3 mph 0.5 kmh
Wind Gusts -- 3.5 mph5.6 kmh - -
Humidity 81% 81% 74% 77%
Pressure 30.20 in1022.7 mb 30.21 in1023.0 mb 30.20 in1022.7 mb -
Hour Temp Dew Point Humidity Winds Wind Gusts Pressure Precip Precip Rate Daily Precip Total
11:00 PM 58.2°F14.6°C 52.4°F11.3°C 81% Calm Calm -- 30.20 in1022.7 mb - 0.00 in0.0 mm 0.00 in0.0 mm
10:50 PM 58.3°F14.6°C 52.5°F11.4°C 81% Calm Calm -- 30.20 in1022.7 mb - 0.00 in0.0 mm 0.00 in0.0 mm
10:40 PM 58.5°F14.7°C 52.4°F11.3°C 80% Calm Calm 2.3 mph3.7 kmh 30.20 in1022.7 mb - 0.00 in0.0 mm 0.00 in0.0 mm
10:30 PM 58.8°F14.9°C 52.3°F11.3°C 79% 1.2 mph NNE1.9 kmh NNE 2.3 mph3.7 kmh 30.20 in1022.7 mb - 0.00 in0.0 mm 0.00 in0.0 mm
10:20 PM 58.9°F14.9°C 52.4°F11.3°C 79% Calm Calm 2.3 mph3.7 kmh 30.20 in1022.7 mb - 0.00 in0.0 mm 0.00 in0.0 mm
10:10 PM 59.2°F15.1°C 52.3°F11.3°C 78% Calm Calm 1.2 mph1.9 kmh 30.20 in1022.7 mb - 0.00 in0.0 mm 0.00 in0.0 mm
10:00 PM 59.4°F15.2°C 52.2°F11.2°C 77% Calm Calm -- 30.21 in1023.0 mb - 0.00 in0.0 mm 0.00 in0.0 mm
09:50 PM 59.5°F15.3°C 52.3°F11.3°C 77% Calm Calm -- 30.20 in1022.7 mb - 0.00 in0.0 mm 0.00 in0.0 mm
09:40 PM 59.4°F15.2°C 52.2°F11.2°C 77% Calm Calm 1.2 mph1.9 kmh 30.20 in1022.7 mb - 0.00 in0.0 mm 0.00 in0.0 mm
09:30 PM 59.4°F15.2°C 52.1°F11.2°C 77% Calm Calm -- 30.21 in1023.0 mb - 0.00 in0.0 mm 0.00 in0.0 mm
09:20 PM 59.4°F15.2°C 52.5°F11.4°C 78% Calm Calm -- 30.21 in1023.0 mb - 0.00 in0.0 mm 0.00 in0.0 mm
09:10 PM 59.4°F15.2°C 52.2°F11.2°C 77% Calm Calm -- 30.21 in1023.0 mb - 0.00 in0.0 mm 0.00 in0.0 mm
09:00 PM 59.5°F15.3°C 51.9°F11.1°C 76% Calm Calm 2.3 mph3.7 kmh 30.21 in1023.0 mb - 0.00 in0.0 mm 0.00 in0.0 mm
08:50 PM 59.5°F15.3°C 51.9°F11.1°C 76% 1.2 mph NNE1.9 kmh NNE 3.5 mph5.6 kmh 30.21 in1023.0 mb - 0.00 in0.0 mm 0.00 in0.0 mm
08:40 PM 59.6°F15.3°C 51.7°F10.9°C 75% Calm Calm 1.2 mph1.9 kmh 30.21 in1023.0 mb - 0.00 in0.0 mm 0.00 in0.0 mm
08:30 PM 59.6°F15.3°C 51.3°F10.7°C 74% Calm Calm 1.2 mph1.9 kmh 30.21 in1023.0 mb - 0.00 in0.0 mm 0.00 in0.0 mm
08:20 PM 59.6°F15.3°C 51.3°F10.7°C 74% 1.2 mph NW1.9 kmh NW 3.5 mph5.6 kmh 30.21 in1023.0 mb - 0.00 in0.0 mm 0.00 in0.0 mm
08:10 PM 59.6°F15.3°C 51.7°F10.9°C 75% 1.2 mph NE1.9 kmh NE 3.5 mph5.6 kmh 30.21 in1023.0 mb - 0.00 in0.0 mm 0.00 in0.0 mm
08:00 PM 59.5°F15.3°C 51.6°F10.9°C 75% 1.2 mph E1.9 kmh E 2.3 mph3.7 kmh 30.21 in1023.0 mb - 0.00 in0.0 mm 0.00 in0.0 mm
07:50 PM 59.5°F15.3°C 51.6°F10.9°C 75% 1.2 mph E1.9 kmh E 3.5 mph5.6 kmh 30.21 in1023.0 mb - 0.00 in0.0 mm 0.00 in0.0 mm
07:40 PM 59.5°F15.3°C 51.2°F10.7°C 74% Calm Calm 1.2 mph1.9 kmh 30.21 in1023.0 mb - 0.00 in0.0 mm 0.00 in0.0 mm
07:30 PM 59.4°F15.2°C 51.5°F10.8°C 75% 1.2 mph E1.9 kmh E 4.6 mph7.4 kmh 30.20 in1022.7 mb - 0.00 in0.0 mm 0.00 in0.0 mm
07:20 PM 59.3°F15.2°C 51.4°F10.8°C 75% Calm Calm 1.2 mph1.9 kmh 30.21 in1023.0 mb - 0.00 in0.0 mm 0.00 in0.0 mm
07:10 PM 59.4°F15.2°C 51.5°F10.8°C 75% Calm Calm -- 30.21 in1023.0 mb - 0.00 in0.0 mm 0.00 in0.0 mm
07:00 PM 59.5°F15.3°C 50.8°F10.4°C 73% Calm Calm 2.3 mph3.7 kmh 30.21 in1023.0 mb - 0.00 in0.0 mm 0.00 in0.0 mm
06:50 PM 59.5°F15.3°C 51.2°F10.7°C 74% Calm Calm 2.3 mph3.7 kmh 30.20 in1022.7 mb - 0.00 in0.0 mm 0.00 in0.0 mm
06:40 PM 59.4°F15.2°C 51.5°F10.8°C 75% Calm Calm 2.3 mph3.7 kmh 30.20 in1022.7 mb - 0.00 in0.0 mm 0.00 in0.0 mm
06:30 PM 59.4°F15.2°C 51.5°F10.8°C 75% 1.2 mph ENE1.9 kmh ENE 1.2 mph1.9 kmh 30.20 in1022.7 mb - 0.00 in0.0 mm 0.00 in0.0 mm
06:20 PM 59.4°F15.2°C 51.8°F11.0°C 76% Calm Calm -- 30.20 in1022.7 mb - 0.00 in0.0 mm 0.00 in0.0 mm
06:10 PM 59.4°F15.2°C 51.8°F11.0°C 76% Calm Calm 2.3 mph3.7 kmh 30.20 in1022.7 mb - 0.00 in0.0 mm 0.00 in0.0 mm
06:00 PM 59.4°F15.2°C 51.5°F10.8°C 75% 1.2 mph E1.9 kmh E 3.5 mph5.6 kmh 30.20 in1022.7 mb - 0.00 in0.0 mm 0.00 in0.0 mm
05:50 PM 59.6°F15.3°C 50.9°F10.5°C 73% 3.5 mph E5.6 kmh E 4.6 mph7.4 kmh 30.20 in1022.7 mb - 0.00 in0.0 mm 0.00 in0.0 mm
05:40 PM 59.9°F15.5°C 50.5°F10.3°C 71% 2.3 mph ENE3.7 kmh ENE 5.8 mph9.3 kmh 30.20 in1022.7 mb - 0.00 in0.0 mm 0.00 in0.0 mm
05:30 PM 60.1°F15.6°C 51.0°F10.6°C 72% 1.2 mph SE1.9 kmh SE 4.6 mph7.4 kmh 30.20 in1022.7 mb - 0.00 in0.0 mm 0.00 in0.0 mm
05:20 PM 60.1°F15.6°C 51.0°F10.6°C 72% 2.3 mph NE3.7 kmh NE 4.6 mph7.4 kmh 30.20 in1022.7 mb - 0.00 in0.0 mm 0.00 in0.0 mm
05:10 PM 60.1°F15.6°C 50.7°F10.4°C 71% 3.5 mph ENE5.6 kmh ENE 4.6 mph7.4 kmh 30.20 in1022.7 mb - 0.00 in0.0 mm 0.00 in0.0 mm
05:00 PM 59.9°F15.5°C 50.5°F10.3°C 71% Calm Calm 1.2 mph1.9 kmh 30.20 in1022.7 mb - 0.00 in0.0 mm 0.00 in0.0 mm
04:50 PM 59.8°F15.4°C 50.8°F10.4°C 72% 1.2 mph ENE1.9 kmh ENE 2.3 mph3.7 kmh 30.20 in1022.7 mb - 0.00 in0.0 mm 0.00 in0.0 mm
04:40 PM 59.9°F15.5°C 50.8°F10.4°C 72% 1.2 mph E1.9 kmh E 4.6 mph7.4 kmh 30.20 in1022.7 mb - 0.00 in0.0 mm 0.00 in0.0 mm
04:30 PM 59.9°F15.5°C 50.5°F10.3°C 71% Calm Calm 2.3 mph3.7 kmh 30.20 in1022.7 mb - 0.00 in0.0 mm 0.00 in0.0 mm
04:20 PM 59.9°F15.5°C 50.8°F10.4°C 72% 2.3 mph NE3.7 kmh NE 4.6 mph7.4 kmh 30.21 in1023.0 mb - 0.00 in0.0 mm 0.00 in0.0 mm
04:10 PM 59.9°F15.5°C 50.8°F10.4°C 72% 1.2 mph NE1.9 kmh NE 2.3 mph3.7 kmh 30.21 in1023.0 mb - 0.00 in0.0 mm 0.00 in0.0 mm
04:00 PM 59.9°F15.5°C 50.8°F10.4°C 72% 2.3 mph NE3.7 kmh NE 3.5 mph5.6 kmh 30.21 in1023.0 mb - 0.00 in0.0 mm 0.00 in0.0 mm
03:50 PM 60.1°F15.6°C 51.0°F10.6°C 72% 2.3 mph NE3.7 kmh NE 3.5 mph5.6 kmh 30.21 in1023.0 mb - 0.00 in0.0 mm 0.00 in0.0 mm
03:40 PM 60.2°F15.7°C 51.2°F10.7°C 72% 1.2 mph NE1.9 kmh NE 3.5 mph5.6 kmh 30.21 in1023.0 mb - 0.00 in0.0 mm 0.00 in0.0 mm
03:30 PM 60.4°F15.8°C 51.7°F10.9°C 73% 1.2 mph NE1.9 kmh NE 2.3 mph3.7 kmh 30.22 in1023.4 mb - 0.00 in0.0 mm 0.00 in0.0 mm
03:20 PM 60.5°F15.8°C 52.2°F11.2°C 74% 1.2 mph NE1.9 kmh NE 2.3 mph3.7 kmh 30.22 in1023.4 mb - 0.00 in0.0 mm 0.00 in0.0 mm
03:10 PM 60.6°F15.9°C 52.3°F11.3°C 74% 1.2 mph NE1.9 kmh NE 3.5 mph5.6 kmh 30.22 in1023.4 mb - 0.00 in0.0 mm 0.00 in0.0 mm
03:00 PM 60.8°F16.0°C 52.1°F11.2°C 73% 2.3 mph ENE3.7 kmh ENE 3.5 mph5.6 kmh 30.23 in1023.7 mb - 0.00 in0.0 mm 0.00 in0.0 mm
02:50 PM 60.8°F16.0°C 52.1°F11.2°C 73% 1.2 mph E1.9 kmh E 3.5 mph5.6 kmh 30.23 in1023.7 mb - 0.00 in0.0 mm 0.00 in0.0 mm
02:40 PM 60.9°F16.1°C 52.2°F11.2°C 73% 1.2 mph ENE1.9 kmh ENE 3.5 mph5.6 kmh 30.23 in1023.7 mb - 0.00 in0.0 mm 0.00 in0.0 mm
02:30 PM 61.0°F16.1°C 52.3°F11.3°C 73% 1.2 mph ENE1.9 kmh ENE 6.9 mph11.1 kmh 30.23 in1023.7 mb - 0.00 in0.0 mm 0.00 in0.0 mm
02:20 PM 61.2°F16.2°C 52.5°F11.4°C 73% 1.2 mph NE1.9 kmh NE 3.5 mph5.6 kmh 30.23 in1023.7 mb - 0.00 in0.0 mm 0.00 in0.0 mm
02:10 PM 61.9°F16.6°C 52.8°F11.6°C 72% 1.2 mph NE1.9 kmh NE 8.1 mph13.0 kmh 30.23 in1023.7 mb - 0.00 in0.0 mm 0.00 in0.0 mm
02:00 PM 61.9°F16.6°C 52.8°F11.6°C 72% 2.3 mph NE3.7 kmh NE 4.6 mph7.4 kmh 30.24 in1024.0 mb - 0.00 in0.0 mm 0.00 in0.0 mm
01:50 PM 62.0°F16.7°C 53.2°F11.8°C 73% 1.2 mph NE1.9 kmh NE 3.5 mph5.6 kmh 30.24 in1024.0 mb - 0.00 in0.0 mm 0.00 in0.0 mm
01:40 PM 61.9°F16.6°C 52.8°F11.6°C 72% 1.2 mph NE1.9 kmh NE 3.5 mph5.6 kmh 30.25 in1024.4 mb - 0.00 in0.0 mm 0.00 in0.0 mm
01:30 PM 62.2°F16.8°C 53.0°F11.7°C 72% 1.2 mph NE1.9 kmh NE 3.5 mph5.6 kmh 30.25 in1024.4 mb - 0.00 in0.0 mm 0.00 in0.0 mm
01:20 PM 62.5°F16.9°C 53.3°F11.8°C 72% 1.2 mph NE1.9 kmh NE 2.3 mph3.7 kmh 30.25 in1024.4 mb - 0.00 in0.0 mm 0.00 in0.0 mm
01:10 PM 62.2°F16.8°C 53.1°F11.7°C 72% 1.2 mph NE1.9 kmh NE 3.5 mph5.6 kmh 30.26 in1024.7 mb - 0.00 in0.0 mm 0.00 in0.0 mm
01:00 PM 61.7°F16.5°C 52.6°F11.4°C 72% Calm Calm 2.3 mph3.7 kmh 30.26 in1024.7 mb - 0.00 in0.0 mm 0.00 in0.0 mm
12:50 PM 61.5°F16.4°C 52.4°F11.3°C 72% 1.2 mph NE1.9 kmh NE 3.5 mph5.6 kmh 30.27 in1025.1 mb - 0.00 in0.0 mm 0.00 in0.0 mm
12:40 PM 61.3°F16.3°C 51.8°F11.0°C 71% 1.2 mph NE1.9 kmh NE 3.5 mph5.6 kmh 30.26 in1024.7 mb - 0.00 in0.0 mm 0.00 in0.0 mm
12:30 PM 61.3°F16.3°C 52.6°F11.4°C 73% Calm Calm 2.3 mph3.7 kmh 30.27 in1025.1 mb - 0.00 in0.0 mm 0.00 in0.0 mm
12:20 PM 61.2°F16.2°C 52.1°F11.2°C 72% Calm Calm -- 30.26 in1024.7 mb - 0.00 in0.0 mm 0.00 in0.0 mm
12:10 PM 60.9°F16.1°C 52.2°F11.2°C 73% Calm Calm 2.3 mph3.7 kmh 30.27 in1025.1 mb - 0.00 in0.0 mm 0.00 in0.0 mm
12:00 PM 60.6°F15.9°C 51.9°F11.1°C 73% 1.2 mph NE1.9 kmh NE 3.5 mph5.6 kmh 30.27 in1025.1 mb - 0.00 in0.0 mm 0.00 in0.0 mm
11:50 AM 60.6°F15.9°C 51.9°F11.1°C 73% Calm Calm 1.2 mph1.9 kmh 30.27 in1025.1 mb - 0.00 in0.0 mm 0.00 in0.0 mm
11:40 AM 60.8°F16.0°C 51.7°F10.9°C 72% 1.2 mph NE1.9 kmh NE 2.3 mph3.7 kmh 30.27 in1025.1 mb - 0.00 in0.0 mm 0.00 in0.0 mm
11:30 AM 61.0°F16.1°C 52.7°F11.5°C 74% Calm Calm 3.5 mph5.6 kmh 30.27 in1025.1 mb - 0.00 in0.0 mm 0.00 in0.0 mm
11:20 AM 61.1°F16.2°C 52.7°F11.5°C 74% 1.2 mph NE1.9 kmh NE 3.5 mph5.6 kmh 30.27 in1025.1 mb - 0.00 in0.0 mm 0.00 in0.0 mm
11:10 AM 60.9°F16.1°C 53.3°F11.8°C 76% Calm Calm -- 30.27 in1025.1 mb - 0.00 in0.0 mm 0.00 in0.0 mm
11:00 AM 60.8°F16.0°C 53.2°F11.8°C 76% Calm Calm 1.2 mph1.9 kmh 30.27 in1025.1 mb - 0.00 in0.0 mm 0.00 in0.0 mm
10:50 AM 60.8°F16.0°C 52.8°F11.6°C 75% Calm Calm 2.3 mph3.7 kmh 30.27 in1025.1 mb - 0.00 in0.0 mm 0.00 in0.0 mm
10:40 AM 60.7°F15.9°C 52.4°F11.3°C 74% Calm Calm 1.2 mph1.9 kmh 30.27 in1025.1 mb - 0.00 in0.0 mm 0.00 in0.0 mm
10:30 AM 60.7°F15.9°C 52.3°F11.3°C 74% Calm Calm 1.2 mph1.9 kmh 30.27 in1025.1 mb - 0.00 in0.0 mm 0.00 in0.0 mm
10:20 AM 60.5°F15.8°C 52.2°F11.2°C 74% Calm Calm -- 30.27 in1025.1 mb - 0.00 in0.0 mm 0.00 in0.0 mm
10:10 AM 60.2°F15.7°C 52.2°F11.2°C 75% Calm Calm -- 30.27 in1025.1 mb - 0.00 in0.0 mm 0.00 in0.0 mm
10:00 AM 60.0°F15.6°C 51.7°F10.9°C 74% Calm Calm 1.2 mph1.9 kmh 30.28 in1025.4 mb - 0.00 in0.0 mm 0.00 in0.0 mm
09:50 AM 59.8°F15.4°C 52.5°F11.4°C 77% Calm Calm 1.2 mph1.9 kmh 30.28 in1025.4 mb - 0.00 in0.0 mm 0.00 in0.0 mm
09:40 AM 59.5°F15.3°C 51.9°F11.1°C 76% Calm Calm -- 30.28 in1025.4 mb - 0.00 in0.0 mm 0.00 in0.0 mm
09:30 AM 59.2°F15.1°C 52.0°F11.1°C 77% Calm Calm -- 30.28 in1025.4 mb - 0.00 in0.0 mm 0.00 in0.0 mm
09:20 AM 58.9°F14.9°C 51.7°F10.9°C 77% Calm Calm -- 30.28 in1025.4 mb - 0.00 in0.0 mm 0.00 in0.0 mm
09:10 AM 58.8°F14.9°C 51.6°F10.9°C 77% Calm Calm 1.2 mph1.9 kmh 30.28 in1025.4 mb - 0.00 in0.0 mm 0.00 in0.0 mm
09:00 AM 58.6°F14.8°C 51.1°F10.6°C 76% Calm Calm -- 30.28 in1025.4 mb - 0.00 in0.0 mm 0.00 in0.0 mm
08:50 AM 58.6°F14.8°C 51.4°F10.8°C 77% Calm Calm -- 30.28 in1025.4 mb - 0.00 in0.0 mm 0.00 in0.0 mm
08:40 AM 58.6°F14.8°C 51.8°F11.0°C 78% Calm Calm -- 30.28 in1025.4 mb - 0.00 in0.0 mm 0.00 in0.0 mm
08:30 AM 58.7°F14.8°C 51.5°F10.8°C 77% Calm Calm 2.3 mph3.7 kmh 30.27 in1025.1 mb - 0.00 in0.0 mm 0.00 in0.0 mm
08:20 AM 58.8°F14.9°C 51.6°F10.9°C 77% Calm Calm -- 30.28 in1025.4 mb - 0.00 in0.0 mm 0.00 in0.0 mm
08:10 AM 58.9°F14.9°C 52.1°F11.2°C 78% Calm Calm -- 30.28 in1025.4 mb - 0.00 in0.0 mm 0.00 in0.0 mm
08:00 AM 58.9°F14.9°C 52.1°F11.2°C 78% Calm Calm -- 30.28 in1025.4 mb - 0.00 in0.0 mm 0.00 in0.0 mm
07:50 AM 58.9°F14.9°C 52.1°F11.2°C 78% Calm Calm 2.3 mph3.7 kmh 30.28 in1025.4 mb - 0.00 in0.0 mm 0.00 in0.0 mm
07:40 AM 58.9°F14.9°C 52.1°F11.2°C 78% Calm Calm 2.3 mph3.7 kmh 30.28 in1025.4 mb - 0.00 in0.0 mm 0.00 in0.0 mm
07:30 AM 58.8°F14.9°C 52.3°F11.3°C 79% Calm Calm 1.2 mph1.9 kmh 30.27 in1025.1 mb - 0.00 in0.0 mm 0.00 in0.0 mm
07:20 AM 58.5°F14.7°C 52.0°F11.1°C 79% Calm Calm -- 30.27 in1025.1 mb - 0.00 in0.0 mm 0.00 in0.0 mm
07:10 AM 58.5°F14.7°C 52.0°F11.1°C 79% Calm Calm 1.2 mph1.9 kmh 30.27 in1025.1 mb - 0.00 in0.0 mm 0.00 in0.0 mm
07:00 AM 58.6°F14.8°C 52.1°F11.2°C 79% 1.2 mph ENE1.9 kmh ENE -- 30.27 in1025.1 mb - 0.00 in0.0 mm 0.00 in0.0 mm
06:50 AM 58.8°F14.9°C 52.0°F11.1°C 78% Calm Calm -- 30.28 in1025.4 mb - 0.00 in0.0 mm 0.00 in0.0 mm
06:40 AM 58.9°F14.9°C 52.1°F11.2°C 78% Calm Calm -- 30.28 in1025.4 mb - 0.00 in0.0 mm 0.00 in0.0 mm
06:30 AM 59.0°F15.0°C 52.1°F11.2°C 78% Calm Calm -- 30.28 in1025.4 mb - 0.00 in0.0 mm 0.00 in0.0 mm
06:20 AM 59.1°F15.1°C 52.2°F11.2°C 78% Calm Calm -- 30.28 in1025.4 mb - 0.00 in0.0 mm 0.00 in0.0 mm
06:10 AM 59.2°F15.1°C 52.3°F11.3°C 78% Calm Calm -- 30.27 in1025.1 mb - 0.00 in0.0 mm 0.00 in0.0 mm
06:00 AM 59.1°F15.1°C 52.2°F11.2°C 78% Calm Calm -- 30.27 in1025.1 mb - 0.00 in0.0 mm 0.00 in0.0 mm
05:50 AM 59.1°F15.1°C 52.2°F11.2°C 78% Calm Calm 1.2 mph1.9 kmh 30.28 in1025.4 mb - 0.00 in0.0 mm 0.00 in0.0 mm
05:40 AM 59.0°F15.0°C 52.5°F11.4°C 79% Calm Calm -- 30.28 in1025.4 mb - 0.00 in0.0 mm 0.00 in0.0 mm
05:30 AM 59.0°F15.0°C 52.1°F11.2°C 78% Calm Calm -- 30.28 in1025.4 mb - 0.00 in0.0 mm 0.00 in0.0 mm
05:20 AM 58.9°F14.9°C 52.4°F11.3°C 79% Calm Calm 2.3 mph3.7 kmh 30.27 in1025.1 mb - 0.00 in0.0 mm 0.00 in0.0 mm
05:10 AM 58.7°F14.8°C 52.6°F11.4°C 80% Calm Calm -- 30.28 in1025.4 mb - 0.00 in0.0 mm 0.00 in0.0 mm
05:00 AM 58.4°F14.7°C 52.3°F11.3°C 80% Calm Calm -- 30.28 in1025.4 mb - 0.00 in0.0 mm 0.00 in0.0 mm
04:50 AM 58.4°F14.7°C 52.6°F11.4°C 81% Calm Calm -- 30.28 in1025.4 mb - 0.00 in0.0 mm 0.00 in0.0 mm
04:40 AM 58.3°F14.6°C 52.5°F11.4°C 81% Calm Calm -- 30.28 in1025.4 mb - 0.00 in0.0 mm 0.00 in0.0 mm
04:30 AM 58.1°F14.5°C 52.6°F11.4°C 82% Calm Calm -- 30.28 in1025.4 mb - 0.00 in0.0 mm 0.00 in0.0 mm
04:20 AM 58.1°F14.5°C 52.6°F11.4°C 82% Calm Calm -- 30.28 in1025.4 mb - 0.00 in0.0 mm 0.00 in0.0 mm
04:10 AM 58.1°F14.5°C 53.0°F11.7°C 83% Calm Calm -- 30.27 in1025.1 mb - 0.00 in0.0 mm 0.00 in0.0 mm
04:00 AM 57.9°F14.4°C 52.8°F11.6°C 83% Calm Calm -- 30.27 in1025.1 mb - 0.00 in0.0 mm 0.00 in0.0 mm
03:50 AM 57.8°F14.3°C 52.7°F11.5°C 83% Calm Calm -- 30.27 in1025.1 mb - 0.00 in0.0 mm 0.00 in0.0 mm
03:40 AM 57.7°F14.3°C 53.2°F11.8°C 85% Calm Calm -- 30.27 in1025.1 mb - 0.00 in0.0 mm 0.00 in0.0 mm
03:30 AM 57.6°F14.2°C 53.1°F11.7°C 85% Calm Calm 1.2 mph1.9 kmh 30.27 in1025.1 mb - 0.00 in0.0 mm 0.00 in0.0 mm
03:20 AM 57.6°F14.2°C 53.1°F11.7°C 85% Calm Calm -- 30.27 in1025.1 mb - 0.00 in0.0 mm 0.00 in0.0 mm
03:10 AM 57.6°F14.2°C 53.4°F11.9°C 86% Calm Calm -- 30.27 in1025.1 mb - 0.00 in0.0 mm 0.00 in0.0 mm
03:00 AM 57.5°F14.2°C 53.3°F11.8°C 86% Calm Calm -- 30.27 in1025.1 mb - 0.00 in0.0 mm 0.00 in0.0 mm
02:50 AM 57.4°F14.1°C 53.6°F12.0°C 87% Calm Calm -- 30.27 in1025.1 mb - 0.00 in0.0 mm 0.00 in0.0 mm
02:40 AM 57.4°F14.1°C 53.6°F12.0°C 87% Calm Calm -- 30.28 in1025.4 mb - 0.00 in0.0 mm 0.00 in0.0 mm
02:30 AM 57.3°F14.1°C 53.5°F11.9°C 87% Calm Calm -- 30.28 in1025.4 mb - 0.00 in0.0 mm 0.00 in0.0 mm
02:20 AM 57.3°F14.1°C 53.8°F12.1°C 88% Calm Calm -- 30.29 in1025.7 mb - 0.00 in0.0 mm 0.00 in0.0 mm
02:10 AM 57.3°F14.1°C 53.8°F12.1°C 88% Calm Calm -- 30.29 in1025.7 mb - 0.00 in0.0 mm 0.00 in0.0 mm
02:00 AM 57.2°F14.0°C 53.7°F12.1°C 88% Calm Calm -- 30.29 in1025.7 mb - 0.00 in0.0 mm 0.00 in0.0 mm
01:50 AM 57.1°F13.9°C 53.6°F12.0°C 88% Calm Calm -- 30.29 in1025.7 mb - 0.00 in0.0 mm 0.00 in0.0 mm
01:40 AM 57.1°F13.9°C 53.9°F12.2°C 89% Calm Calm -- 30.29 in1025.7 mb - 0.00 in0.0 mm 0.00 in0.0 mm
01:30 AM 57.1°F13.9°C 53.9°F12.2°C 89% Calm Calm -- 30.29 in1025.7 mb - 0.00 in0.0 mm 0.00 in0.0 mm
01:20 AM 57.1°F13.9°C 54.2°F12.3°C 90% Calm Calm -- 30.29 in1025.7 mb - 0.00 in0.0 mm 0.00 in0.0 mm
01:10 AM 57.1°F13.9°C 54.2°F12.3°C 90% Calm Calm -- 30.29 in1025.7 mb - 0.00 in0.0 mm 0.00 in0.0 mm
01:00 AM 57.1°F13.9°C 54.5°F12.5°C 91% Calm Calm -- 30.30 in1026.1 mb - 0.00 in0.0 mm 0.00 in0.0 mm
12:50 AM 57.1°F13.9°C 54.5°F12.5°C 91% Calm Calm -- 30.30 in1026.1 mb - 0.00 in0.0 mm 0.00 in0.0 mm
12:40 AM 57.0°F13.9°C 54.4°F12.4°C 91% Calm Calm -- 30.30 in1026.1 mb - 0.00 in0.0 mm 0.00 in0.0 mm
12:30 AM 57.1°F13.9°C 54.8°F12.7°C 92% Calm Calm -- 30.30 in1026.1 mb - 0.00 in0.0 mm 0.00 in0.0 mm
12:20 AM 57.2°F14.0°C 54.9°F12.7°C 92% Calm Calm -- 30.30 in1026.1 mb - 0.00 in0.0 mm 0.00 in0.0 mm
12:10 AM 57.2°F14.0°C 54.6°F12.6°C 91% Calm Calm -- 30.31 in1026.4 mb - 0.00 in0.0 mm 0.00 in0.0 mm
12:00 AM 57.3°F14.1°C 55.0°F12.8°C 92% Calm Calm -- 30.31 in1026.4 mb - 0.00 in0.0 mm 0.00 in0.0 mm